Terminal Aerodrome Forecast
Issued by NWS

Home | Current Version | Previous Version | Text Only | Print | Product List | Glossary On
Versions: 1 2 3 4 5 6 7 8 9 10 11 12 13 14 15 16 17
498
FTAK31 PAJN 290421 AAA
TAFASI
TAF AMD
PASI 290421Z 2904/2924 20008KT P6SM -SHRA BKN025 OVC045
     FM290700 15011KT P6SM -SHRA SCT030 OVC045
     FM291500 13009KT P6SM -SHRA BKN030 OVC045
      TEMPO 2920/2924 5SM -SHRA BR BKN020 OVC045=

USA.gov is the U.S. government's official web portal to all federal, state and local government web resources and services.